Time;durP1;ratioP1;P1;durP2;ratioP2;P2;SDS_P1;SDS_P2;PMS_P1;PMS_P2;Temp;Humidity;BMP_temperature;BMP_pressure;BME280_temperature;BME280_humidity;BME280_pressure;Samples;Min_cycle;Max_cycle;Signal;HPM_P1;HPM_P2
2022/10/29 00:01:25;;;;;;;18.70;9.17;;;;;;;;;;5057949;28;20211;-80
2022/10/29 00:03:51;;;;;;;16.87;9.00;;;;;;;;;;5074755;28;20182;-80
2022/10/29 00:06:17;;;;;;;18.13;9.10;;;;;;;;;;5083092;28;20187;-80
2022/10/29 00:08:43;;;;;;;21.00;9.67;;;;;;;;;;5064652;28;20186;-80
2022/10/29 00:11:17;;;;;;;21.40;9.67;;;;;;;;;;5070719;28;20251;-80
2022/10/29 00:13:43;;;;;;;22.58;11.70;;;;;;;;;;5074978;28;20409;-80
2022/10/29 00:16:19;;;;;;;22.70;10.40;;;;;;;;;;5094165;28;20174;-80
2022/10/29 00:18:46;;;;;;;18.53;9.07;;;;;;;;;;5070181;28;20232;-79
2022/10/29 00:21:14;;;;;;;24.42;10.07;;;;;;;;;;5055963;28;20426;-80
2022/10/29 00:23:40;;;;;;;24.55;11.63;;;;;;;;;;5063482;28;20424;-80
2022/10/29 00:26:06;;;;;;;26.67;12.38;;;;;;;;;;5070602;28;20456;-80
2022/10/29 00:28:32;;;;;;;28.17;12.23;;;;;;;;;;5075498;28;20411;-80
2022/10/29 00:31:03;;;;;;;22.27;10.67;;;;;;;;;;5057165;28;20188;-80
2022/10/29 00:33:29;;;;;;;25.70;10.83;;;;;;;;;;5075310;28;20209;-80
2022/10/29 00:36:00;;;;;;;22.30;10.80;;;;;;;;;;5076698;28;20188;-91
2022/10/29 00:38:26;;;;;;;24.60;10.90;;;;;;;;;;5077563;28;20206;-91
2022/10/29 00:40:52;;;;;;;22.98;10.68;;;;;;;;;;5077272;28;20422;-90
2022/10/29 00:43:20;;;;;;;20.23;10.83;;;;;;;;;;5077017;28;20402;-91
2022/10/29 00:45:48;;;;;;;24.17;11.68;;;;;;;;;;5076084;28;20461;-90
2022/10/29 00:48:14;;;;;;;20.45;10.48;;;;;;;;;;5077498;28;20445;-90
2022/10/29 00:50:40;;;;;;;21.45;11.65;;;;;;;;;;5076048;28;20414;-80
2022/10/29 00:53:06;;;;;;;22.27;11.30;;;;;;;;;;5054236;28;20430;-79
2022/10/29 00:55:32;;;;;;;21.15;11.32;;;;;;;;;;5070891;28;20479;-79
2022/10/29 00:57:59;;;;;;;19.40;9.63;;;;;;;;;;5075801;28;20270;-76
2022/10/29 01:00:25;;;;;;;23.47;10.17;;;;;;;;;;5075407;28;20205;-77
2022/10/29 01:02:51;;;;;;;22.60;10.02;;;;;;;;;;5076846;28;20418;-77
2022/10/29 01:05:19;;;;;;;21.00;10.57;;;;;;;;;;5075671;28;20418;-77
2022/10/29 01:07:46;;;;;;;18.50;9.97;;;;;;;;;;5074011;28;20179;-90
2022/10/29 01:10:12;;;;;;;15.13;8.77;;;;;;;;;;5077293;28;20171;-90
2022/10/29 01:12:53;;;;;;;18.43;9.73;;;;;;;;;;5076343;28;20205;-77
2022/10/29 01:15:36;;;;;;;17.92;10.18;;;;;;;;;;5060592;28;20450;-76
2022/10/29 01:18:23;;;;;;;18.37;9.60;;;;;;;;;;5075284;28;20225;-77
2022/10/29 01:20:48;;;;;;;22.03;10.23;;;;;;;;;;5069555;28;20310;-77
2022/10/29 01:23:17;;;;;;;19.77;9.37;;;;;;;;;;5065859;28;20184;-77
2022/10/29 01:25:43;;;;;;;19.40;9.10;;;;;;;;;;5067671;28;20187;-80
2022/10/29 01:28:23;;;;;;;22.13;9.17;;;;;;;;;;5067504;28;20183;-80
2022/10/29 01:30:52;;;;;;;18.85;10.32;;;;;;;;;;5073756;28;20426;-80
2022/10/29 01:33:28;;;;;;;23.45;10.07;;;;;;;;;;5070776;28;20526;-80
2022/10/29 01:35:54;;;;;;;24.17;9.53;;;;;;;;;;5067904;28;20183;-80
2022/10/29 01:38:46;;;;;;;;;;;;;;;;;;;;;
2022/10/29 01:41:12;;;;;;;51.30;10.77;;;;;;;;;;5076219;28;20207;-78
2022/10/29 01:43:51;;;;;;;25.67;10.87;;;;;;;;;;5074755;28;20273;-77
2022/10/29 01:46:20;;;;;;;26.30;11.63;;;;;;;;;;5072983;28;20262;-77
2022/10/29 01:48:47;;;;;;;35.35;13.13;;;;;;;;;;5063745;28;20418;-77
2022/10/29 01:51:18;;;;;;;52.50;14.20;;;;;;;;;;5074606;28;20463;-77
2022/10/29 01:53:44;;;;;;;54.22;15.18;;;;;;;;;;5074790;28;20430;-78
2022/10/29 01:56:10;;;;;;;34.63;12.67;;;;;;;;;;5075346;28;20182;-78
2022/10/29 01:58:37;;;;;;;34.65;14.10;;;;;;;;;;5053421;28;20439;-78
2022/10/29 02:01:06;;;;;;;26.55;14.18;;;;;;;;;;5089657;28;20579;-77
2022/10/29 02:03:38;;;;;;;19.77;11.23;;;;;;;;;;5075029;28;20206;-77
2022/10/29 02:06:07;;;;;;;23.90;10.77;;;;;;;;;;5073336;28;20183;-77
2022/10/29 02:08:33;;;;;;;27.10;10.63;;;;;;;;;;5067657;28;20263;-77
2022/10/29 02:11:07;;;;;;;26.52;12.90;;;;;;;;;;5069805;28;20457;-77
2022/10/29 02:13:41;;;;;;;23.23;11.45;;;;;;;;;;5068911;28;20418;-77
2022/10/29 02:16:08;;;;;;;16.70;9.53;;;;;;;;;;5073255;28;20179;-79
2022/10/29 02:18:44;;;;;;;27.93;10.40;;;;;;;;;;5054429;28;20304;-80
2022/10/29 02:21:10;;;;;;;27.35;12.07;;;;;;;;;;5070859;28;20440;-80
2022/10/29 02:23:36;;;;;;;32.13;11.88;;;;;;;;;;5074652;28;20526;-80
2022/10/29 02:26:02;;;;;;;32.75;11.20;;;;;;;;;;5074002;28;20438;-80
2022/10/29 02:28:28;;;;;;;31.35;11.13;;;;;;;;;;5066283;28;20464;-80
2022/10/29 02:30:54;;;;;;;33.57;10.60;;;;;;;;;;5047458;28;20238;-77
2022/10/29 02:33:20;;;;;;;43.60;11.70;;;;;;;;;;5073035;28;20248;-77
2022/10/29 02:35:46;;;;;;;30.33;11.70;;;;;;;;;;5062678;28;20187;-77
2022/10/29 02:38:12;;;;;;;32.60;10.67;;;;;;;;;;5053183;28;20187;-77
2022/10/29 02:40:38;;;;;;;50.13;10.83;;;;;;;;;;5056147;28;20211;-77
2022/10/29 02:43:04;;;;;;;31.73;12.05;;;;;;;;;;5056576;28;20445;-77
2022/10/29 02:45:30;;;;;;;32.90;11.87;;;;;;;;;;5072489;28;20191;-78
2022/10/29 02:47:56;;;;;;;27.07;11.00;;;;;;;;;;5073110;28;20192;-80
2022/10/29 02:50:22;;;;;;;27.80;11.30;;;;;;;;;;5057511;28;20207;-80
2022/10/29 02:52:48;;;;;;;23.80;12.20;;;;;;;;;;5073436;28;20187;-80
2022/10/29 02:55:14;;;;;;;22.87;11.20;;;;;;;;;;5057134;28;20183;-80
2022/10/29 02:57:43;;;;;;;27.43;11.90;;;;;;;;;;5072463;28;20285;-80
2022/10/29 03:00:09;;;;;;;22.57;11.47;;;;;;;;;;5064316;28;20229;-80
2022/10/29 03:02:35;;;;;;;23.67;11.80;;;;;;;;;;5055957;28;20217;-80
2022/10/29 03:05:01;;;;;;;22.13;11.50;;;;;;;;;;5056610;28;20297;-78
2022/10/29 03:07:27;;;;;;;21.63;11.63;;;;;;;;;;5072853;28;20183;-81
2022/10/29 03:09:53;;;;;;;20.70;10.73;;;;;;;;;;5074207;28;20258;-79
2022/10/29 03:12:19;;;;;;;19.97;10.93;;;;;;;;;;5073597;28;20195;-77
2022/10/29 03:14:45;;;;;;;18.07;10.03;;;;;;;;;;5038991;28;20199;-77
2022/10/29 03:17:11;;;;;;;24.03;10.80;;;;;;;;;;5072259;28;20194;-77
2022/10/29 03:19:37;;;;;;;21.57;10.60;;;;;;;;;;5094027;28;20193;-78
2022/10/29 03:22:03;;;;;;;14.57;8.67;;;;;;;;;;5058399;28;20266;-81
2022/10/29 03:24:29;;;;;;;14.63;8.60;;;;;;;;;;5075969;28;20186;-81
2022/10/29 03:26:55;;;;;;;17.13;9.30;;;;;;;;;;5059119;28;20213;-81
2022/10/29 03:29:21;;;;;;;11.00;8.80;;;;;;;;;;5057644;28;20315;-81
2022/10/29 03:31:47;;;;;;;16.50;8.90;;;;;;;;;;5052310;28;20259;-81
2022/10/29 03:34:13;;;;;;;21.47;9.57;;;;;;;;;;5050782;28;20253;-80
2022/10/29 03:36:39;;;;;;;15.83;9.50;;;;;;;;;;5094043;28;20278;-81
2022/10/29 03:39:05;;;;;;;15.73;9.07;;;;;;;;;;5073828;28;20191;-81
2022/10/29 03:41:31;;;;;;;21.63;9.80;;;;;;;;;;5075793;28;20202;-77
2022/10/29 03:43:57;;;;;;;20.23;9.97;;;;;;;;;;5059877;28;20185;-77
2022/10/29 03:46:23;;;;;;;22.23;10.60;;;;;;;;;;5075545;28;20183;-77
2022/10/29 03:48:49;;;;;;;22.17;10.00;;;;;;;;;;5059505;28;20187;-91
2022/10/29 03:51:15;;;;;;;23.83;9.90;;;;;;;;;;5076769;28;20273;-91
2022/10/29 03:53:41;;;;;;;25.00;11.10;;;;;;;;;;5056605;28;20271;-80
2022/10/29 03:56:09;;;;;;;39.13;11.10;;;;;;;;;;5075974;28;20221;-80
2022/10/29 03:58:35;;;;;;;29.30;12.57;;;;;;;;;;5072288;28;20243;-80
2022/10/29 04:01:02;;;;;;;30.63;12.37;;;;;;;;;;5075573;28;20259;-80
2022/10/29 04:03:29;;;;;;;41.33;12.90;;;;;;;;;;5057431;28;20210;-80
2022/10/29 04:05:56;;;;;;;35.17;13.50;;;;;;;;;;5059195;28;20235;-80
2022/10/29 04:08:22;;;;;;;42.37;13.30;;;;;;;;;;5094011;28;20257;-80
2022/10/29 04:10:49;;;;;;;35.27;13.80;;;;;;;;;;5076121;28;20202;-78
2022/10/29 04:13:15;;;;;;;41.00;13.50;;;;;;;;;;5068711;28;20196;-77
2022/10/29 04:15:42;;;;;;;44.13;14.27;;;;;;;;;;5068770;28;20175;-77
2022/10/29 04:18:08;;;;;;;28.93;13.27;;;;;;;;;;5072091;28;20231;-76
2022/10/29 04:20:35;;;;;;;39.70;14.73;;;;;;;;;;5059054;28;20203;-75
2022/10/29 04:23:01;;;;;;;41.67;14.40;;;;;;;;;;5093026;28;20213;-79
2022/10/29 04:25:27;;;;;;;41.30;14.20;;;;;;;;;;5075211;28;20179;-79
2022/10/29 04:27:54;;;;;;;40.37;14.73;;;;;;;;;;5086560;28;20175;-75
2022/10/29 04:30:20;;;;;;;31.77;14.90;;;;;;;;;;5093085;28;20227;-75
2022/10/29 04:32:46;;;;;;;29.10;14.97;;;;;;;;;;5059169;28;20228;-75
2022/10/29 04:35:12;;;;;;;39.87;15.23;;;;;;;;;;5061955;28;20190;-88
2022/10/29 04:37:38;;;;;;;30.90;14.77;;;;;;;;;;5094119;28;20183;-88
2022/10/29 04:40:04;;;;;;;34.97;14.77;;;;;;;;;;5059281;28;20175;-89
2022/10/29 04:42:35;;;;;;;25.53;13.87;;;;;;;;;;5075639;28;20182;-79
2022/10/29 04:45:01;;;;;;;29.93;13.67;;;;;;;;;;5076150;28;20196;-78
2022/10/29 04:47:28;;;;;;;23.63;13.60;;;;;;;;;;5075675;28;20191;-78
2022/10/29 04:49:54;;;;;;;23.03;12.77;;;;;;;;;;5069018;28;20191;-78
2022/10/29 04:52:20;;;;;;;24.47;11.80;;;;;;;;;;5056042;28;20185;-78
2022/10/29 04:54:46;;;;;;;22.07;11.77;;;;;;;;;;5042294;28;20188;-78
2022/10/29 04:57:12;;;;;;;24.53;11.17;;;;;;;;;;5069735;28;20187;-78
2022/10/29 04:59:38;;;;;;;21.90;11.17;;;;;;;;;;5075622;28;20179;-78
2022/10/29 05:02:04;;;;;;;19.87;11.33;;;;;;;;;;5088291;28;20253;-80
2022/10/29 05:04:30;;;;;;;19.03;11.27;;;;;;;;;;5074209;28;20194;-79
2022/10/29 05:06:56;;;;;;;19.03;11.27;;;;;;;;;;5075913;28;20179;-79
2022/10/29 05:09:22;;;;;;;22.97;11.70;;;;;;;;;;5091365;28;20198;-79
2022/10/29 05:11:48;;;;;;;20.27;12.73;;;;;;;;;;5096850;28;20186;-79
2022/10/29 05:14:14;;;;;;;23.40;11.87;;;;;;;;;;5078643;28;20187;-79
2022/10/29 05:16:40;;;;;;;27.00;12.17;;;;;;;;;;5077203;28;20194;-79
2022/10/29 05:19:06;;;;;;;26.37;13.20;;;;;;;;;;5097134;28;20230;-75
2022/10/29 05:21:32;;;;;;;24.00;13.40;;;;;;;;;;5079021;28;20210;-75
2022/10/29 05:23:58;;;;;;;24.80;12.53;;;;;;;;;;5070651;28;20207;-75
2022/10/29 05:26:24;;;;;;;38.90;15.10;;;;;;;;;;5087326;28;20186;-75
2022/10/29 05:28:50;;;;;;;33.27;16.07;;;;;;;;;;5082451;28;20217;-75
2022/10/29 05:31:17;;;;;;;41.07;16.63;;;;;;;;;;5096615;28;20187;-75
2022/10/29 05:33:43;;;;;;;33.50;16.77;;;;;;;;;;5069163;28;20198;-75
2022/10/29 05:36:09;;;;;;;43.73;17.37;;;;;;;;;;5088151;28;20213;-75
2022/10/29 05:38:35;;;;;;;40.77;16.07;;;;;;;;;;5090566;28;20182;-75
2022/10/29 05:41:01;;;;;;;38.17;17.23;;;;;;;;;;5083757;28;20254;-75
2022/10/29 05:43:27;;;;;;;35.67;15.87;;;;;;;;;;5080478;28;20223;-75
2022/10/29 05:45:53;;;;;;;40.23;16.67;;;;;;;;;;5087093;28;20178;-75
2022/10/29 05:48:19;;;;;;;39.83;15.63;;;;;;;;;;5108484;28;20208;-75
2022/10/29 05:50:45;;;;;;;34.23;16.07;;;;;;;;;;5114486;28;20257;-75
2022/10/29 05:53:12;;;;;;;36.57;16.93;;;;;;;;;;5090550;28;20186;-75
2022/10/29 05:55:39;;;;;;;45.77;18.47;;;;;;;;;;5095306;28;20192;-78
2022/10/29 05:58:14;;;;;;;47.97;18.77;;;;;;;;;;5084204;28;20249;-78
2022/10/29 06:00:41;;;;;;;42.37;18.97;;;;;;;;;;5078685;28;20213;-78
2022/10/29 06:03:25;;;;;;;47.43;18.63;;;;;;;;;;5079045;28;20175;-78
2022/10/29 06:05:51;;;;;;;46.13;19.10;;;;;;;;;;5085389;28;20179;-80
2022/10/29 06:08:17;;;;;;;45.53;18.40;;;;;;;;;;5075021;28;20187;-91
2022/10/29 06:10:43;;;;;;;35.47;17.57;;;;;;;;;;5078505;28;20186;-92
2022/10/29 06:13:14;;;;;;;45.53;18.83;;;;;;;;;;5061837;28;20315;-91
2022/10/29 06:15:40;;;;;;;44.33;18.67;;;;;;;;;;5078082;28;20195;-91
2022/10/29 06:18:06;;;;;;;44.30;19.20;;;;;;;;;;5074922;28;20247;-91
2022/10/29 06:20:32;;;;;;;35.87;17.27;;;;;;;;;;5075992;28;20226;-91
2022/10/29 06:22:58;;;;;;;39.30;17.17;;;;;;;;;;5074767;28;20186;-91
2022/10/29 06:25:25;;;;;;;36.43;16.70;;;;;;;;;;5074291;28;20174;-77
2022/10/29 06:27:58;;;;;;;35.50;16.90;;;;;;;;;;5077042;28;20175;-77
2022/10/29 06:32:53;;;;;;;31.33;16.43;;;;;;;;;;5052210;28;20210;-80
2022/10/29 06:35:19;;;;;;;39.57;16.47;;;;;;;;;;5040436;28;20179;-79
2022/10/29 06:37:45;;;;;;;31.97;15.47;;;;;;;;;;5037662;28;20180;-79
2022/10/29 06:40:11;;;;;;;31.73;14.70;;;;;;;;;;5037664;28;20184;-80
2022/10/29 06:42:37;;;;;;;28.47;14.40;;;;;;;;;;5037044;28;20183;-80
2022/10/29 06:45:03;;;;;;;28.20;14.90;;;;;;;;;;5037096;28;20183;-80
2022/10/29 06:47:29;;;;;;;27.37;14.33;;;;;;;;;;5034036;28;20185;-80
2022/10/29 06:49:56;;;;;;;24.23;14.63;;;;;;;;;;5037714;28;20191;-80
2022/10/29 06:52:22;;;;;;;29.10;15.90;;;;;;;;;;5053495;28;20190;-80
2022/10/29 06:54:48;;;;;;;29.33;15.93;;;;;;;;;;5033420;28;20185;-80
2022/10/29 06:57:13;;;;;;;29.87;16.00;;;;;;;;;;5047043;28;20187;-80
2022/10/29 06:59:39;;;;;;;33.20;17.37;;;;;;;;;;5033961;28;20244;-80
2022/10/29 07:02:06;;;;;;;40.63;17.13;;;;;;;;;;5040720;28;20215;-80
2022/10/29 07:04:32;;;;;;;35.33;17.57;;;;;;;;;;5035747;28;20219;-80
2022/10/29 07:06:58;;;;;;;37.10;16.97;;;;;;;;;;5039181;28;20184;-80
2022/10/29 07:09:24;;;;;;;39.63;17.33;;;;;;;;;;5040445;28;20284;-80
2022/10/29 07:11:50;;;;;;;32.17;17.30;;;;;;;;;;5055970;28;20366;-80
2022/10/29 07:14:16;;;;;;;39.60;18.10;;;;;;;;;;5035149;28;20312;-77
2022/10/29 07:16:42;;;;;;;33.17;17.70;;;;;;;;;;5036613;28;20188;-78
2022/10/29 07:19:08;;;;;;;36.57;18.57;;;;;;;;;;5036661;28;20219;-77
2022/10/29 07:21:34;;;;;;;35.87;17.83;;;;;;;;;;5019765;28;20214;-77
2022/10/29 07:24:00;;;;;;;42.30;19.57;;;;;;;;;;5036475;28;20180;-77
2022/10/29 07:26:26;;;;;;;39.07;18.47;;;;;;;;;;5035596;28;20199;-77
2022/10/29 07:28:55;;;;;;;35.83;19.63;;;;;;;;;;5018452;28;20188;-77
2022/10/29 07:31:21;;;;;;;31.50;18.03;;;;;;;;;;5049499;28;20223;-90
2022/10/29 07:33:47;;;;;;;28.23;17.23;;;;;;;;;;5033208;28;20254;-91
2022/10/29 07:36:13;;;;;;;32.03;17.97;;;;;;;;;;5034612;28;20176;-90
2022/10/29 07:38:39;;;;;;;31.77;18.20;;;;;;;;;;5034247;28;20177;-90
2022/10/29 07:41:05;;;;;;;28.10;17.70;;;;;;;;;;5034527;28;20208;-91
2022/10/29 07:43:31;;;;;;;28.70;18.70;;;;;;;;;;5034012;28;20203;-90
2022/10/29 07:45:57;;;;;;;32.70;21.03;;;;;;;;;;5033681;28;20177;-90
2022/10/29 07:48:23;;;;;;;32.40;19.53;;;;;;;;;;5033605;28;20188;-90
2022/10/29 07:50:50;;;;;;;36.93;21.23;;;;;;;;;;5030965;28;20207;-91
2022/10/29 07:53:16;;;;;;;34.93;21.20;;;;;;;;;;5033209;28;20192;-91
2022/10/29 07:55:42;;;;;;;29.50;20.37;;;;;;;;;;5034805;28;20184;-91
2022/10/29 07:58:10;;;;;;;30.00;19.27;;;;;;;;;;5033182;28;20200;-90
2022/10/29 08:00:37;;;;;;;38.93;20.63;;;;;;;;;;5033740;28;20556;-91
2022/10/29 08:03:03;;;;;;;33.37;20.97;;;;;;;;;;5017361;28;20180;-89
2022/10/29 08:05:30;;;;;;;30.75;19.55;;;;;;;;;;5034193;28;20496;-91
2022/10/29 08:07:56;;;;;;;34.20;18.80;;;;;;;;;;5034576;28;20231;-90
2022/10/29 08:10:23;;;;;;;30.43;18.50;;;;;;;;;;5033254;28;20177;-90
2022/10/29 08:12:50;;;;;;;27.97;18.50;;;;;;;;;;5033434;28;20223;-90
2022/10/29 08:15:16;;;;;;;29.10;18.20;;;;;;;;;;5033278;28;20196;-90
2022/10/29 08:17:42;;;;;;;39.15;19.88;;;;;;;;;;5032706;28;20485;-91
2022/10/29 08:20:08;;;;;;;30.40;18.87;;;;;;;;;;5033404;28;20185;-91
2022/10/29 08:22:34;;;;;;;28.00;18.73;;;;;;;;;;5032104;28;20238;-80
2022/10/29 08:25:00;;;;;;;30.00;18.90;;;;;;;;;;5028321;28;20180;-80
2022/10/29 08:27:26;;;;;;;23.07;16.37;;;;;;;;;;5031789;28;20238;-80
2022/10/29 08:29:52;;;;;;;28.37;17.47;;;;;;;;;;5032383;28;20181;-80
2022/10/29 08:32:18;;;;;;;22.30;16.63;;;;;;;;;;5031846;28;20293;-80
2022/10/29 08:34:44;;;;;;;25.83;17.13;;;;;;;;;;5031937;28;20196;-80
2022/10/29 08:37:10;;;;;;;24.50;17.17;;;;;;;;;;5032693;28;20181;-82
2022/10/29 08:39:36;;;;;;;25.77;15.07;;;;;;;;;;5032045;28;20248;-82
2022/10/29 08:42:18;;;;;;;24.40;15.47;;;;;;;;;;5032469;28;20210;-82
2022/10/29 08:44:50;;;;;;;23.00;13.70;;;;;;;;;;5031220;28;20333;-82
2022/10/29 08:47:19;;;;;;;21.73;14.40;;;;;;;;;;5023357;28;20259;-82
2022/10/29 08:49:45;;;;;;;18.07;14.00;;;;;;;;;;5037722;28;20169;-82
2022/10/29 08:52:18;;;;;;;21.43;14.47;;;;;;;;;;5037550;28;20191;-82
2022/10/29 08:54:47;;;;;;;22.27;14.40;;;;;;;;;;5037866;28;20181;-82
2022/10/29 08:57:14;;;;;;;24.47;13.50;;;;;;;;;;5036313;28;20208;-83
2022/10/29 08:59:43;;;;;;;23.07;13.70;;;;;;;;;;5036206;28;20191;-82
2022/10/29 09:02:14;;;;;;;23.27;15.03;;;;;;;;;;5037390;28;20291;-83
2022/10/29 09:04:40;;;;;;;23.67;14.67;;;;;;;;;;5052543;28;20177;-82
2022/10/29 09:07:09;;;;;;;21.10;14.20;;;;;;;;;;5036323;28;20189;-82
2022/10/29 09:09:38;;;;;;;21.10;13.47;;;;;;;;;;5052180;28;20188;-83
2022/10/29 09:12:14;;;;;;;17.97;13.43;;;;;;;;;;5052660;28;20275;-81
2022/10/29 09:14:46;;;;;;;18.43;13.33;;;;;;;;;;5035937;28;20180;-81
2022/10/29 09:17:15;;;;;;;20.93;14.27;;;;;;;;;;5036434;28;20184;-81
2022/10/29 09:19:59;;;;;;;20.60;14.40;;;;;;;;;;5034514;28;20433;-81
2022/10/29 09:22:25;;;;;;;19.43;13.40;;;;;;;;;;5035725;28;20215;-81
2022/10/29 09:25:03;;;;;;;19.20;13.10;;;;;;;;;;5034700;28;20177;-81
2022/10/29 09:27:38;;;;;;;18.03;12.70;;;;;;;;;;5036747;28;20174;-83
2022/10/29 09:30:08;;;;;;;19.43;13.10;;;;;;;;;;5034653;28;20176;-83
2022/10/29 09:32:57;;;;;;;19.07;13.57;;;;;;;;;;5019923;28;20320;-82
2022/10/29 09:35:35;;;;;;;22.03;13.93;;;;;;;;;;5009041;28;20216;-82
2022/10/29 09:38:07;;;;;;;25.63;13.90;;;;;;;;;;5015482;28;20185;-82
2022/10/29 09:40:35;;;;;;;21.43;14.77;;;;;;;;;;5011845;28;20181;-83
2022/10/29 09:43:05;;;;;;;22.53;14.43;;;;;;;;;;5032404;28;20173;-83
2022/10/29 09:45:42;;;;;;;23.10;15.07;;;;;;;;;;5022691;28;20177;-81
2022/10/29 09:48:13;;;;;;;21.90;14.83;;;;;;;;;;5012155;28;20188;-81
2022/10/29 09:50:39;;;;;;;22.70;14.80;;;;;;;;;;5012429;28;20252;-81
2022/10/29 09:53:06;;;;;;;22.77;14.97;;;;;;;;;;5029081;28;20185;-81
2022/10/29 09:55:40;;;;;;;25.60;15.53;;;;;;;;;;5022332;28;20180;-81
2022/10/29 09:58:06;;;;;;;22.17;15.57;;;;;;;;;;5020811;28;20177;-81
2022/10/29 10:00:33;;;;;;;26.97;14.87;;;;;;;;;;5010873;28;20185;-80
2022/10/29 10:03:03;;;;;;;21.23;14.83;;;;;;;;;;5029408;28;20185;-81
2022/10/29 10:05:30;;;;;;;20.13;15.27;;;;;;;;;;5016492;28;20220;-80
2022/10/29 10:08:05;;;;;;;21.17;15.80;;;;;;;;;;5023953;28;20173;-81
2022/10/29 10:10:32;;;;;;;27.13;16.07;;;;;;;;;;5016254;28;20181;-80
2022/10/29 10:13:01;;;;;;;24.33;16.13;;;;;;;;;;5030771;28;20535;-80
2022/10/29 10:15:33;;;;;;;28.10;16.37;;;;;;;;;;5036713;28;20280;-80
2022/10/29 10:18:02;;;;;;;22.03;15.83;;;;;;;;;;5028730;28;20181;-91
2022/10/29 10:20:31;;;;;;;21.97;16.73;;;;;;;;;;5015029;28;20193;-90
2022/10/29 10:22:57;;;;;;;25.20;15.47;;;;;;;;;;5031402;28;20227;-90
2022/10/29 10:25:35;;;;;;;21.93;16.57;;;;;;;;;;5031115;28;20189;-91
2022/10/29 10:28:15;;;;;;;26.67;15.90;;;;;;;;;;5028924;28;20196;-90
2022/10/29 10:30:42;;;;;;;22.57;15.30;;;;;;;;;;5022916;28;20181;-83
2022/10/29 10:33:12;;;;;;;27.17;16.57;;;;;;;;;;5037579;28;20191;-84
2022/10/29 10:35:38;;;;;;;23.33;16.40;;;;;;;;;;5030296;28;20187;-78
2022/10/29 10:38:09;;;;;;;75.13;16.87;;;;;;;;;;5035664;28;20195;-78
2022/10/29 10:40:35;;;;;;;19.80;14.63;;;;;;;;;;5053151;28;20184;-79
2022/10/29 10:43:02;;;;;;;23.70;14.43;;;;;;;;;;5037786;28;20184;-78
2022/10/29 10:45:33;;;;;;;24.30;12.37;;;;;;;;;;5054291;28;20192;-78
2022/10/29 10:47:59;;;;;;;21.60;12.93;;;;;;;;;;5054311;28;20400;-78
2022/10/29 10:50:27;;;;;;;20.67;10.73;;;;;;;;;;5055137;28;20183;-83
2022/10/29 10:52:54;;;;;;;15.50;10.67;;;;;;;;;;5053829;28;20221;-84
2022/10/29 10:55:28;;;;;;;17.90;9.90;;;;;;;;;;5052859;28;20281;-84
2022/10/29 10:57:57;;;;;;;19.80;9.90;;;;;;;;;;5054285;28;20172;-84
2022/10/29 11:00:23;;;;;;;21.00;10.67;;;;;;;;;;5036862;28;20184;-84
2022/10/29 11:02:58;;;;;;;23.37;10.60;;;;;;;;;;5052258;28;20185;-84
2022/10/29 11:05:34;;;;;;;18.17;10.50;;;;;;;;;;5036320;28;20190;-85
2022/10/29 11:08:06;;;;;;;17.70;10.33;;;;;;;;;;5053492;28;20176;-79
2022/10/29 11:10:41;;;;;;;19.23;10.20;;;;;;;;;;5042495;28;20192;-79
2022/10/29 11:13:12;;;;;;;17.27;9.57;;;;;;;;;;5050266;28;20176;-79
2022/10/29 11:15:58;;;;;;;20.50;9.83;;;;;;;;;;5052458;28;20200;-79
2022/10/29 11:18:24;;;;;;;17.60;10.03;;;;;;;;;;5054075;28;20189;-78
2022/10/29 11:20:59;;;;;;;22.83;10.23;;;;;;;;;;5042690;28;20204;-78
2022/10/29 11:23:37;;;;;;;17.20;10.20;;;;;;;;;;5036637;28;20263;-79
2022/10/29 11:26:07;;;;;;;19.27;10.70;;;;;;;;;;5054784;28;20182;-91
2022/10/29 11:28:38;;;;;;;20.63;10.53;;;;;;;;;;5037904;28;20176;-81
2022/10/29 11:31:14;;;;;;;19.10;10.30;;;;;;;;;;5017068;28;20220;-81
2022/10/29 11:33:47;;;;;;;19.00;10.00;;;;;;;;;;5017004;28;20176;-80
2022/10/29 11:36:13;;;;;;;17.40;9.57;;;;;;;;;;5043594;28;20183;-80
2022/10/29 11:38:47;;;;;;;18.70;10.23;;;;;;;;;;5033597;28;20181;-81
2022/10/29 11:41:16;;;;;;;16.10;10.13;;;;;;;;;;5033260;28;20268;-91
2022/10/29 11:43:42;;;;;;;18.80;9.20;;;;;;;;;;5043289;28;20187;-90
2022/10/29 11:46:30;;;;;;;14.87;9.20;;;;;;;;;;5059925;28;20176;-90
2022/10/29 11:49:08;;;;;;;18.07;8.83;;;;;;;;;;5052615;28;20204;-91
2022/10/29 11:51:42;;;;;;;17.13;8.63;;;;;;;;;;5054134;28;20207;-91
2022/10/29 11:54:24;;;;;;;14.10;8.60;;;;;;;;;;5053982;28;20179;-91
2022/10/29 11:57:12;;;;;;;15.63;8.37;;;;;;;;;;5037477;28;20191;-90
2022/10/29 11:59:38;;;;;;;16.60;8.07;;;;;;;;;;5054030;28;20210;-90
2022/10/29 12:02:12;;;;;;;18.50;8.93;;;;;;;;;;5053901;28;20300;-90
2022/10/29 12:04:53;;;;;;;17.73;7.97;;;;;;;;;;5036584;28;20269;-90
2022/10/29 12:07:22;;;;;;;18.87;8.60;;;;;;;;;;5017870;28;20184;-90
2022/10/29 12:09:59;;;;;;;15.80;7.83;;;;;;;;;;5025510;28;20272;-91
2022/10/29 12:12:28;;;;;;;16.70;8.10;;;;;;;;;;5051051;28;20189;-80
2022/10/29 12:15:12;;;;;;;14.90;8.50;;;;;;;;;;5033610;28;20180;-83
2022/10/29 12:17:38;;;;;;;15.50;8.27;;;;;;;;;;5053807;28;20175;-83
2022/10/29 12:20:10;;;;;;;16.10;8.13;;;;;;;;;;5055212;28;20176;-84
2022/10/29 12:23:02;;;;;;;15.93;7.97;;;;;;;;;;5036563;28;20208;-84
2022/10/29 12:25:28;;;;;;;18.93;8.23;;;;;;;;;;5003902;28;20200;-84
2022/10/29 12:28:25;;;;;;;18.07;9.30;;;;;;;;;;5037735;28;20181;-84
2022/10/29 12:31:05;;;;;;;16.87;8.63;;;;;;;;;;5049627;28;20247;-83
2022/10/29 12:33:42;;;;;;;18.77;8.80;;;;;;;;;;5055382;28;20258;-83
2022/10/29 12:36:22;;;;;;;16.40;8.50;;;;;;;;;;5056836;28;20187;-83
2022/10/29 12:38:55;;;;;;;16.97;9.40;;;;;;;;;;5057701;28;20179;-83
2022/10/29 12:41:30;;;;;;;12.67;8.70;;;;;;;;;;5039843;28;20218;-84
2022/10/29 12:44:09;;;;;;;14.10;8.90;;;;;;;;;;5057601;28;20183;-84
2022/10/29 12:46:40;;;;;;;16.17;8.30;;;;;;;;;;5093548;22;20242;-90
2022/10/29 12:49:45;;;;;;;26.27;9.50;;;;;;;;;;5093383;28;20183;-90
2022/10/29 12:52:16;;;;;;;17.20;7.53;;;;;;;;;;5033678;28;20192;-90
2022/10/29 12:54:46;;;;;;;18.50;7.70;;;;;;;;;;5052208;28;20275;-91
2022/10/29 12:57:12;;;;;;;13.50;7.30;;;;;;;;;;5041000;28;20191;-90
2022/10/29 12:59:39;;;;;;;16.03;7.27;;;;;;;;;;5093428;28;20179;-90
2022/10/29 13:02:24;;;;;;;15.43;7.33;;;;;;;;;;5094282;28;20272;-90
2022/10/29 13:05:08;;;;;;;14.83;6.77;;;;;;;;;;5092350;28;20189;-90
2022/10/29 13:07:35;;;;;;;16.10;6.63;;;;;;;;;;5093460;28;20230;-90
2022/10/29 13:10:20;;;;;;;15.70;6.93;;;;;;;;;;5092982;28;20175;-90
2022/10/29 13:12:54;;;;;;;16.27;6.70;;;;;;;;;;5085046;28;20178;-90
2022/10/29 13:15:22;;;;;;;16.57;6.80;;;;;;;;;;5106058;28;20190;-91
2022/10/29 13:17:49;;;;;;;18.33;6.97;;;;;;;;;;5096365;28;20182;-90
2022/10/29 13:20:21;;;;;;;12.47;6.70;;;;;;;;;;5097163;28;20182;-90
2022/10/29 13:22:51;;;;;;;15.53;6.73;;;;;;;;;;5084859;28;20202;-80
2022/10/29 13:25:27;;;;;;;12.97;6.80;;;;;;;;;;5104931;28;20187;-81
2022/10/29 13:27:53;;;;;;;16.90;7.27;;;;;;;;;;5093422;28;20177;-80
2022/10/29 13:30:24;;;;;;;13.47;6.20;;;;;;;;;;5093152;28;20182;-80
2022/10/29 13:32:50;;;;;;;13.17;6.60;;;;;;;;;;5086286;28;20177;-80
2022/10/29 13:35:16;;;;;;;14.50;6.40;;;;;;;;;;5094157;28;20272;-80
2022/10/29 13:37:45;;;;;;;19.10;6.23;;;;;;;;;;5099120;28;20186;-78
2022/10/29 13:40:30;;;;;;;13.10;6.17;;;;;;;;;;5091531;28;20216;-78
2022/10/29 13:42:56;;;;;;;18.03;6.63;;;;;;;;;;5101185;28;20265;-79
2022/10/29 13:45:22;;;;;;;13.17;6.67;;;;;;;;;;5095017;28;20286;-81
2022/10/29 13:47:48;;;;;;;15.60;6.40;;;;;;;;;;5053426;28;20229;-80
2022/10/29 13:50:18;;;;;;;13.60;6.73;;;;;;;;;;5101994;28;20266;-81
2022/10/29 13:52:45;;;;;;;13.00;6.33;;;;;;;;;;5091532;28;20183;-81
2022/10/29 13:55:14;;;;;;;15.87;6.80;;;;;;;;;;5076984;28;20194;-78
2022/10/29 13:57:52;;;;;;;18.27;6.83;;;;;;;;;;5103308;27;20194;-78
2022/10/29 14:00:19;;;;;;;18.17;6.87;;;;;;;;;;5085902;28;20190;-79
2022/10/29 14:02:52;;;;;;;18.23;6.40;;;;;;;;;;5091630;28;20207;-79
2022/10/29 14:05:20;;;;;;;18.23;6.40;;;;;;;;;;5076782;28;20187;-79
2022/10/29 14:08:04;;;;;;;16.63;6.33;;;;;;;;;;5104558;28;20216;-79
2022/10/29 14:10:33;;;;;;;15.30;6.83;;;;;;;;;;5091598;28;20214;-90
2022/10/29 14:13:06;;;;;;;21.07;6.90;;;;;;;;;;5085561;28;20175;-91
2022/10/29 14:15:33;;;;;;;14.48;7.25;;;;;;;;;;5105697;28;20179;-90
2022/10/29 14:18:16;;;;;;;15.27;6.67;;;;;;;;;;5061634;28;20187;-90
2022/10/29 14:20:42;;;;;;;14.53;6.17;;;;;;;;;;5110247;28;20220;-90
2022/10/29 14:23:08;;;;;;;14.68;6.60;;;;;;;;;;5076074;28;20191;-90
2022/10/29 14:25:35;;;;;;;15.73;6.30;;;;;;;;;;5058240;28;20242;-90
2022/10/29 14:28:08;;;;;;;12.57;6.60;;;;;;;;;;5074973;28;20221;-84
2022/10/29 14:30:34;;;;;;;19.83;6.50;;;;;;;;;;5074041;28;20226;-83
2022/10/29 14:33:00;;;;;;;14.60;6.57;;;;;;;;;;5091288;28;20183;-84
2022/10/29 14:35:26;;;;;;;16.20;6.70;;;;;;;;;;5074228;28;20186;-83